sensor_id;sensor_type;location;lat;lon;timestamp;P1;durP1;ratioP1;P2;durP2;ratioP2
23113;SDS011;11726;50.122;8.832;2022-09-23T00:01:10;4.75;;;3.60;;
23113;SDS011;11726;50.122;8.832;2022-09-23T00:03:38;4.30;;;3.90;;
23113;SDS011;11726;50.122;8.832;2022-09-23T00:08:53;5.13;;;3.47;;
23113;SDS011;11726;50.122;8.832;2022-09-23T00:11:20;4.60;;;3.80;;
23113;SDS011;11726;50.122;8.832;2022-09-23T00:13:53;5.72;;;3.38;;
23113;SDS011;11726;50.122;8.832;2022-09-23T00:16:24;3.80;;;3.40;;
23113;SDS011;11726;50.122;8.832;2022-09-23T00:18:53;4.28;;;3.88;;
23113;SDS011;11726;50.122;8.832;2022-09-23T00:21:21;4.28;;;3.50;;
23113;SDS011;11726;50.122;8.832;2022-09-23T00:23:47;4.05;;;3.58;;
23113;SDS011;11726;50.122;8.832;2022-09-23T00:26:15;4.35;;;3.20;;
23113;SDS011;11726;50.122;8.832;2022-09-23T00:28:44;4.78;;;3.58;;
23113;SDS011;11726;50.122;8.832;2022-09-23T00:31:12;5.05;;;3.50;;
23113;SDS011;11726;50.122;8.832;2022-09-23T00:33:41;3.80;;;3.33;;
23113;SDS011;11726;50.122;8.832;2022-09-23T00:36:09;6.22;;;3.08;;
23113;SDS011;11726;50.122;8.832;2022-09-23T00:38:37;4.63;;;3.05;;
23113;SDS011;11726;50.122;8.832;2022-09-23T00:41:03;4.63;;;3.47;;
23113;SDS011;11726;50.122;8.832;2022-09-23T00:43:38;3.83;;;3.40;;
23113;SDS011;11726;50.122;8.832;2022-09-23T00:46:14;5.10;;;3.20;;
23113;SDS011;11726;50.122;8.832;2022-09-23T00:48:45;4.25;;;3.20;;
23113;SDS011;11726;50.122;8.832;2022-09-23T00:51:16;4.40;;;3.58;;
23113;SDS011;11726;50.122;8.832;2022-09-23T00:53:47;3.78;;;3.47;;
23113;SDS011;11726;50.122;8.832;2022-09-23T00:56:17;4.07;;;3.65;;
23113;SDS011;11726;50.122;8.832;2022-09-23T00:58:46;5.57;;;3.92;;
23113;SDS011;11726;50.122;8.832;2022-09-23T01:01:14;5.72;;;3.83;;
23113;SDS011;11726;50.122;8.832;2022-09-23T01:03:42;3.97;;;3.53;;
23113;SDS011;11726;50.122;8.832;2022-09-23T01:06:10;5.80;;;3.95;;
23113;SDS011;11726;50.122;8.832;2022-09-23T01:08:38;4.28;;;3.88;;
23113;SDS011;11726;50.122;8.832;2022-09-23T01:11:17;8.48;;;3.65;;
23113;SDS011;11726;50.122;8.832;2022-09-23T01:16:43;3.85;;;3.20;;
23113;SDS011;11726;50.122;8.832;2022-09-23T01:31:05;5.28;;;3.38;;
23113;SDS011;11726;50.122;8.832;2022-09-23T01:33:38;7.00;;;3.88;;
23113;SDS011;11726;50.122;8.832;2022-09-23T01:36:29;4.93;;;3.60;;
23113;SDS011;11726;50.122;8.832;2022-09-23T01:41:49;4.80;;;3.47;;
23113;SDS011;11726;50.122;8.832;2022-09-23T01:44:40;5.40;;;3.67;;
23113;SDS011;11726;50.122;8.832;2022-09-23T01:47:14;5.22;;;3.75;;
23113;SDS011;11726;50.122;8.832;2022-09-23T01:52:25;5.85;;;3.45;;
23113;SDS011;11726;50.122;8.832;2022-09-23T01:55:04;7.18;;;4.10;;
23113;SDS011;11726;50.122;8.832;2022-09-23T01:57:57;7.93;;;4.25;;
23113;SDS011;11726;50.122;8.832;2022-09-23T02:00:31;5.75;;;3.97;;
23113;SDS011;11726;50.122;8.832;2022-09-23T02:03:06;5.30;;;4.20;;
23113;SDS011;11726;50.122;8.832;2022-09-23T02:05:41;4.25;;;3.83;;
23113;SDS011;11726;50.122;8.832;2022-09-23T02:08:14;7.22;;;4.28;;
23113;SDS011;11726;50.122;8.832;2022-09-23T02:10:51;5.57;;;3.80;;
23113;SDS011;11726;50.122;8.832;2022-09-23T02:13:22;6.97;;;4.23;;
23113;SDS011;11726;50.122;8.832;2022-09-23T02:16:00;7.07;;;3.65;;
23113;SDS011;11726;50.122;8.832;2022-09-23T02:18:33;5.68;;;4.13;;
23113;SDS011;11726;50.122;8.832;2022-09-23T02:21:11;4.05;;;3.63;;
23113;SDS011;11726;50.122;8.832;2022-09-23T02:23:41;4.20;;;3.80;;
23113;SDS011;11726;50.122;8.832;2022-09-23T02:26:13;7.68;;;4.10;;
23113;SDS011;11726;50.122;8.832;2022-09-23T02:31:44;6.72;;;4.05;;
23113;SDS011;11726;50.122;8.832;2022-09-23T02:39:34;5.03;;;4.18;;
23113;SDS011;11726;50.122;8.832;2022-09-23T02:42:18;6.63;;;3.75;;
23113;SDS011;11726;50.122;8.832;2022-09-23T02:44:48;6.28;;;4.10;;
23113;SDS011;11726;50.122;8.832;2022-09-23T02:47:15;6.30;;;4.20;;
23113;SDS011;11726;50.122;8.832;2022-09-23T02:49:44;5.68;;;4.78;;
23113;SDS011;11726;50.122;8.832;2022-09-23T02:52:11;4.70;;;3.90;;
23113;SDS011;11726;50.122;8.832;2022-09-23T02:54:38;5.60;;;4.03;;
23113;SDS011;11726;50.122;8.832;2022-09-23T02:57:06;4.13;;;3.72;;
23113;SDS011;11726;50.122;8.832;2022-09-23T02:59:33;4.38;;;3.90;;
23113;SDS011;11726;50.122;8.832;2022-09-23T03:10:29;4.40;;;4.00;;
23113;SDS011;11726;50.122;8.832;2022-09-23T03:13:16;4.22;;;3.83;;
23113;SDS011;11726;50.122;8.832;2022-09-23T03:21:04;4.93;;;3.88;;
23113;SDS011;11726;50.122;8.832;2022-09-23T03:23:36;4.07;;;3.67;;
23113;SDS011;11726;50.122;8.832;2022-09-23T03:26:14;4.30;;;3.50;;
23113;SDS011;11726;50.122;8.832;2022-09-23T03:28:45;6.57;;;3.70;;
23113;SDS011;11726;50.122;8.832;2022-09-23T03:31:13;5.72;;;4.13;;
23113;SDS011;11726;50.122;8.832;2022-09-23T03:33:42;4.10;;;3.72;;
23113;SDS011;11726;50.122;8.832;2022-09-23T03:36:16;4.68;;;3.53;;
23113;SDS011;11726;50.122;8.832;2022-09-23T03:39:09;5.35;;;3.83;;
23113;SDS011;11726;50.122;8.832;2022-09-23T03:41:46;7.72;;;4.35;;
23113;SDS011;11726;50.122;8.832;2022-09-23T03:44:16;3.92;;;3.53;;
23113;SDS011;11726;50.122;8.832;2022-09-23T03:46:44;4.00;;;3.60;;
23113;SDS011;11726;50.122;8.832;2022-09-23T03:49:25;5.65;;;4.05;;
23113;SDS011;11726;50.122;8.832;2022-09-23T03:51:54;4.28;;;3.88;;
23113;SDS011;11726;50.122;8.832;2022-09-23T03:54:21;5.25;;;3.90;;
23113;SDS011;11726;50.122;8.832;2022-09-23T03:56:47;4.43;;;4.03;;
23113;SDS011;11726;50.122;8.832;2022-09-23T03:59:14;6.35;;;4.55;;
23113;SDS011;11726;50.122;8.832;2022-09-23T04:01:42;5.53;;;4.25;;
23113;SDS011;11726;50.122;8.832;2022-09-23T04:04:08;5.03;;;3.60;;
23113;SDS011;11726;50.122;8.832;2022-09-23T04:06:35;6.38;;;4.10;;
23113;SDS011;11726;50.122;8.832;2022-09-23T04:09:02;4.55;;;4.15;;
23113;SDS011;11726;50.122;8.832;2022-09-23T04:11:29;4.70;;;3.97;;
23113;SDS011;11726;50.122;8.832;2022-09-23T04:13:55;4.90;;;4.40;;
23113;SDS011;11726;50.122;8.832;2022-09-23T04:16:22;4.60;;;4.20;;
23113;SDS011;11726;50.122;8.832;2022-09-23T04:18:49;6.20;;;4.40;;
23113;SDS011;11726;50.122;8.832;2022-09-23T04:21:16;4.93;;;4.13;;
23113;SDS011;11726;50.122;8.832;2022-09-23T04:23:43;4.47;;;4.07;;
23113;SDS011;11726;50.122;8.832;2022-09-23T04:26:13;4.68;;;4.20;;
23113;SDS011;11726;50.122;8.832;2022-09-23T04:28:40;4.68;;;4.22;;
23113;SDS011;11726;50.122;8.832;2022-09-23T04:31:07;7.88;;;4.80;;
23113;SDS011;11726;50.122;8.832;2022-09-23T04:33:34;6.88;;;3.88;;
23113;SDS011;11726;50.122;8.832;2022-09-23T04:36:01;6.90;;;4.65;;
23113;SDS011;11726;50.122;8.832;2022-09-23T04:38:28;4.13;;;3.72;;
23113;SDS011;11726;50.122;8.832;2022-09-23T04:40:55;5.97;;;4.78;;
23113;SDS011;11726;50.122;8.832;2022-09-23T04:43:22;5.70;;;4.57;;
23113;SDS011;11726;50.122;8.832;2022-09-23T04:46:01;5.72;;;4.65;;
23113;SDS011;11726;50.122;8.832;2022-09-23T04:48:29;5.03;;;4.60;;
23113;SDS011;11726;50.122;8.832;2022-09-23T04:51:03;4.95;;;4.45;;
23113;SDS011;11726;50.122;8.832;2022-09-23T04:53:38;5.45;;;4.22;;
23113;SDS011;11726;50.122;8.832;2022-09-23T04:56:07;5.00;;;4.50;;
23113;SDS011;11726;50.122;8.832;2022-09-23T04:58:37;5.03;;;4.50;;
23113;SDS011;11726;50.122;8.832;2022-09-23T05:03:44;7.82;;;4.72;;
23113;SDS011;11726;50.122;8.832;2022-09-23T05:06:12;7.30;;;5.07;;
23113;SDS011;11726;50.122;8.832;2022-09-23T05:08:40;5.70;;;4.10;;
23113;SDS011;11726;50.122;8.832;2022-09-23T05:11:11;6.85;;;4.78;;
23113;SDS011;11726;50.122;8.832;2022-09-23T05:13:38;6.40;;;4.72;;
23113;SDS011;11726;50.122;8.832;2022-09-23T05:16:05;7.03;;;4.47;;
23113;SDS011;11726;50.122;8.832;2022-09-23T05:18:34;5.22;;;4.50;;
23113;SDS011;11726;50.122;8.832;2022-09-23T05:21:02;6.85;;;4.20;;
23113;SDS011;11726;50.122;8.832;2022-09-23T05:23:29;5.45;;;4.70;;
23113;SDS011;11726;50.122;8.832;2022-09-23T05:25:56;6.65;;;4.65;;
23113;SDS011;11726;50.122;8.832;2022-09-23T05:28:25;6.00;;;4.90;;
23113;SDS011;11726;50.122;8.832;2022-09-23T05:31:28;6.97;;;5.20;;
23113;SDS011;11726;50.122;8.832;2022-09-23T05:33:52;5.82;;;4.82;;
23113;SDS011;11726;50.122;8.832;2022-09-23T05:36:22;6.50;;;5.05;;
23113;SDS011;11726;50.122;8.832;2022-09-23T05:38:50;7.20;;;5.00;;
23113;SDS011;11726;50.122;8.832;2022-09-23T05:41:18;7.22;;;5.10;;
23113;SDS011;11726;50.122;8.832;2022-09-23T05:43:45;5.35;;;4.85;;
23113;SDS011;11726;50.122;8.832;2022-09-23T05:46:13;5.78;;;4.78;;
23113;SDS011;11726;50.122;8.832;2022-09-23T05:48:42;7.75;;;4.63;;
23113;SDS011;11726;50.122;8.832;2022-09-23T05:51:12;5.28;;;4.78;;
23113;SDS011;11726;50.122;8.832;2022-09-23T05:53:55;6.23;;;4.53;;
23113;SDS011;11726;50.122;8.832;2022-09-23T05:56:24;9.15;;;4.55;;
23113;SDS011;11726;50.122;8.832;2022-09-23T05:58:53;8.23;;;5.03;;
23113;SDS011;11726;50.122;8.832;2022-09-23T06:01:22;6.95;;;4.93;;
23113;SDS011;11726;50.122;8.832;2022-09-23T06:03:54;6.45;;;4.93;;
23113;SDS011;11726;50.122;8.832;2022-09-23T06:06:38;7.53;;;5.07;;
23113;SDS011;11726;50.122;8.832;2022-09-23T06:09:07;5.50;;;4.78;;
23113;SDS011;11726;50.122;8.832;2022-09-23T06:11:36;7.05;;;4.93;;
23113;SDS011;11726;50.122;8.832;2022-09-23T06:14:03;6.78;;;4.65;;
23113;SDS011;11726;50.122;8.832;2022-09-23T06:16:31;7.57;;;5.20;;
23113;SDS011;11726;50.122;8.832;2022-09-23T06:18:59;6.03;;;4.72;;
23113;SDS011;11726;50.122;8.832;2022-09-23T06:21:32;6.82;;;4.45;;
23113;SDS011;11726;50.122;8.832;2022-09-23T06:24:00;6.85;;;4.38;;
23113;SDS011;11726;50.122;8.832;2022-09-23T06:26:28;6.45;;;4.95;;
23113;SDS011;11726;50.122;8.832;2022-09-23T06:28:58;6.43;;;4.78;;
23113;SDS011;11726;50.122;8.832;2022-09-23T06:31:26;5.75;;;4.60;;
23113;SDS011;11726;50.122;8.832;2022-09-23T06:33:53;7.07;;;4.28;;
23113;SDS011;11726;50.122;8.832;2022-09-23T06:36:35;6.20;;;4.45;;
23113;SDS011;11726;50.122;8.832;2022-09-23T06:39:08;7.22;;;4.55;;
23113;SDS011;11726;50.122;8.832;2022-09-23T06:41:35;6.78;;;4.57;;
23113;SDS011;11726;50.122;8.832;2022-09-23T06:44:01;8.10;;;4.85;;
23113;SDS011;11726;50.122;8.832;2022-09-23T06:46:28;5.78;;;4.63;;
23113;SDS011;11726;50.122;8.832;2022-09-23T06:48:56;6.00;;;4.68;;
23113;SDS011;11726;50.122;8.832;2022-09-23T06:51:23;5.57;;;4.40;;
23113;SDS011;11726;50.122;8.832;2022-09-23T06:53:49;6.07;;;4.82;;
23113;SDS011;11726;50.122;8.832;2022-09-23T06:56:16;6.13;;;4.72;;
23113;SDS011;11726;50.122;8.832;2022-09-23T06:58:44;6.65;;;4.25;;
23113;SDS011;11726;50.122;8.832;2022-09-23T07:01:15;8.38;;;5.22;;
23113;SDS011;11726;50.122;8.832;2022-09-23T07:03:43;7.65;;;5.20;;
23113;SDS011;11726;50.122;8.832;2022-09-23T07:06:11;5.40;;;4.60;;
23113;SDS011;11726;50.122;8.832;2022-09-23T07:08:40;5.85;;;4.60;;
23113;SDS011;11726;50.122;8.832;2022-09-23T07:11:08;8.85;;;4.88;;
23113;SDS011;11726;50.122;8.832;2022-09-23T07:13:37;7.45;;;5.20;;
23113;SDS011;11726;50.122;8.832;2022-09-23T07:16:06;6.03;;;5.30;;
23113;SDS011;11726;50.122;8.832;2022-09-23T07:18:34;6.13;;;5.32;;
23113;SDS011;11726;50.122;8.832;2022-09-23T07:21:06;7.15;;;4.95;;
23113;SDS011;11726;50.122;8.832;2022-09-23T07:23:45;9.85;;;5.15;;
23113;SDS011;11726;50.122;8.832;2022-09-23T07:26:13;9.38;;;5.15;;
23113;SDS011;11726;50.122;8.832;2022-09-23T07:28:41;7.93;;;5.22;;
23113;SDS011;11726;50.122;8.832;2022-09-23T07:31:09;9.40;;;5.50;;
23113;SDS011;11726;50.122;8.832;2022-09-23T07:33:39;8.65;;;5.50;;
23113;SDS011;11726;50.122;8.832;2022-09-23T07:36:10;6.97;;;5.63;;
23113;SDS011;11726;50.122;8.832;2022-09-23T07:38:39;6.57;;;5.50;;
23113;SDS011;11726;50.122;8.832;2022-09-23T07:41:11;9.05;;;5.13;;
23113;SDS011;11726;50.122;8.832;2022-09-23T07:43:39;7.43;;;4.95;;
23113;SDS011;11726;50.122;8.832;2022-09-23T07:46:07;13.70;;;5.28;;
23113;SDS011;11726;50.122;8.832;2022-09-23T07:48:37;8.65;;;5.28;;
23113;SDS011;11726;50.122;8.832;2022-09-23T07:51:07;8.20;;;5.20;;
23113;SDS011;11726;50.122;8.832;2022-09-23T07:53:36;6.95;;;5.40;;
23113;SDS011;11726;50.122;8.832;2022-09-23T07:56:04;8.48;;;5.13;;
23113;SDS011;11726;50.122;8.832;2022-09-23T07:58:32;9.40;;;5.60;;
23113;SDS011;11726;50.122;8.832;2022-09-23T08:01:06;11.13;;;5.70;;
23113;SDS011;11726;50.122;8.832;2022-09-23T08:03:35;7.88;;;5.63;;
23113;SDS011;11726;50.122;8.832;2022-09-23T08:06:06;8.50;;;5.70;;
23113;SDS011;11726;50.122;8.832;2022-09-23T08:08:35;7.28;;;5.70;;
23113;SDS011;11726;50.122;8.832;2022-09-23T08:11:06;6.95;;;5.85;;
23113;SDS011;11726;50.122;8.832;2022-09-23T08:13:35;6.53;;;5.20;;
23113;SDS011;11726;50.122;8.832;2022-09-23T08:16:02;8.20;;;5.63;;
23113;SDS011;11726;50.122;8.832;2022-09-23T08:18:29;7.30;;;5.60;;
23113;SDS011;11726;50.122;8.832;2022-09-23T08:20:56;8.68;;;5.43;;
23113;SDS011;11726;50.122;8.832;2022-09-23T08:23:23;8.57;;;5.50;;
23113;SDS011;11726;50.122;8.832;2022-09-23T08:25:55;12.98;;;6.22;;
23113;SDS011;11726;50.122;8.832;2022-09-23T08:30:51;8.13;;;5.38;;
23113;SDS011;11726;50.122;8.832;2022-09-23T08:33:18;8.38;;;5.47;;
23113;SDS011;11726;50.122;8.832;2022-09-23T08:35:49;9.07;;;4.95;;
23113;SDS011;11726;50.122;8.832;2022-09-23T08:38:15;10.13;;;4.75;;
23113;SDS011;11726;50.122;8.832;2022-09-23T08:40:43;5.93;;;4.55;;
23113;SDS011;11726;50.122;8.832;2022-09-23T08:43:16;7.00;;;4.88;;
23113;SDS011;11726;50.122;8.832;2022-09-23T08:45:55;6.20;;;4.18;;
23113;SDS011;11726;50.122;8.832;2022-09-23T08:48:29;6.45;;;4.43;;
23113;SDS011;11726;50.122;8.832;2022-09-23T08:51:03;7.07;;;4.53;;
23113;SDS011;11726;50.122;8.832;2022-09-23T08:53:36;5.88;;;4.30;;
23113;SDS011;11726;50.122;8.832;2022-09-23T08:56:11;5.35;;;3.53;;
23113;SDS011;11726;50.122;8.832;2022-09-23T09:01:23;4.65;;;3.35;;
23113;SDS011;11726;50.122;8.832;2022-09-23T09:04:00;6.15;;;3.40;;
23113;SDS011;11726;50.122;8.832;2022-09-23T09:06:51;4.35;;;3.35;;
23113;SDS011;11726;50.122;8.832;2022-09-23T09:13:05;4.72;;;3.33;;
23113;SDS011;11726;50.122;8.832;2022-09-23T09:15:34;5.60;;;3.60;;
23113;SDS011;11726;50.122;8.832;2022-09-23T09:18:13;5.43;;;3.30;;
23113;SDS011;11726;50.122;8.832;2022-09-23T09:21:00;3.30;;;3.00;;
23113;SDS011;11726;50.122;8.832;2022-09-23T09:26:22;3.65;;;3.10;;
23113;SDS011;11726;50.122;8.832;2022-09-23T09:28:59;3.85;;;3.00;;
23113;SDS011;11726;50.122;8.832;2022-09-23T09:31:50;3.67;;;3.00;;
23113;SDS011;11726;50.122;8.832;2022-09-23T09:34:37;3.47;;;3.10;;
23113;SDS011;11726;50.122;8.832;2022-09-23T09:37:35;3.85;;;2.90;;
23113;SDS011;11726;50.122;8.832;2022-09-23T09:40:13;2.83;;;2.53;;
23113;SDS011;11726;50.122;8.832;2022-09-23T09:42:46;3.78;;;2.58;;
23113;SDS011;11726;50.122;8.832;2022-09-23T09:48:35;3.90;;;2.33;;
23113;SDS011;11726;50.122;8.832;2022-09-23T09:51:18;4.38;;;2.63;;
23113;SDS011;11726;50.122;8.832;2022-09-23T09:53:47;2.40;;;2.20;;
23113;SDS011;11726;50.122;8.832;2022-09-23T09:56:18;3.28;;;2.50;;
23113;SDS011;11726;50.122;8.832;2022-09-23T09:58:58;3.15;;;2.85;;
23113;SDS011;11726;50.122;8.832;2022-09-23T10:01:30;4.43;;;3.00;;
23113;SDS011;11726;50.122;8.832;2022-09-23T10:04:02;2.72;;;2.47;;
23113;SDS011;11726;50.122;8.832;2022-09-23T10:06:32;3.75;;;2.40;;
23113;SDS011;11726;50.122;8.832;2022-09-23T10:11:29;2.97;;;2.47;;
23113;SDS011;11726;50.122;8.832;2022-09-23T10:14:05;4.05;;;2.58;;
23113;SDS011;11726;50.122;8.832;2022-09-23T10:16:43;3.03;;;2.30;;
23113;SDS011;11726;50.122;8.832;2022-09-23T10:19:21;2.63;;;2.42;;
23113;SDS011;11726;50.122;8.832;2022-09-23T10:21:54;3.33;;;2.53;;
23113;SDS011;11726;50.122;8.832;2022-09-23T10:24:28;3.95;;;2.40;;
23113;SDS011;11726;50.122;8.832;2022-09-23T10:27:01;2.78;;;2.20;;
23113;SDS011;11726;50.122;8.832;2022-09-23T10:32:30;2.75;;;2.53;;
23113;SDS011;11726;50.122;8.832;2022-09-23T10:37:44;2.50;;;2.30;;
23113;SDS011;11726;50.122;8.832;2022-09-23T10:46:48;3.97;;;2.15;;
23113;SDS011;11726;50.122;8.832;2022-09-23T10:52:38;4.43;;;2.28;;
23113;SDS011;11726;50.122;8.832;2022-09-23T10:55:17;5.57;;;2.40;;
23113;SDS011;11726;50.122;8.832;2022-09-23T11:06:24;2.63;;;2.40;;
23113;SDS011;11726;50.122;8.832;2022-09-23T11:09:21;3.05;;;2.10;;
23113;SDS011;11726;50.122;8.832;2022-09-23T11:18:05;2.33;;;2.13;;
23113;SDS011;11726;50.122;8.832;2022-09-23T11:29:22;2.80;;;2.00;;
23113;SDS011;11726;50.122;8.832;2022-09-23T11:37:23;3.80;;;2.05;;
23113;SDS011;11726;50.122;8.832;2022-09-23T11:48:48;3.28;;;1.90;;
23113;SDS011;11726;50.122;8.832;2022-09-23T11:51:26;3.17;;;2.40;;
23113;SDS011;11726;50.122;8.832;2022-09-23T11:54:02;3.05;;;2.00;;
23113;SDS011;11726;50.122;8.832;2022-09-23T11:56:46;2.45;;;1.83;;
23113;SDS011;11726;50.122;8.832;2022-09-23T11:59:38;3.47;;;2.13;;
23113;SDS011;11726;50.122;8.832;2022-09-23T12:05:43;4.22;;;2.10;;
23113;SDS011;11726;50.122;8.832;2022-09-23T12:16:48;3.05;;;1.63;;
23113;SDS011;11726;50.122;8.832;2022-09-23T12:19:48;3.13;;;1.67;;
23113;SDS011;11726;50.122;8.832;2022-09-23T12:28:09;2.33;;;1.65;;
23113;SDS011;11726;50.122;8.832;2022-09-23T12:30:52;2.20;;;1.48;;
23113;SDS011;11726;50.122;8.832;2022-09-23T12:33:22;2.85;;;1.60;;
23113;SDS011;11726;50.122;8.832;2022-09-23T12:36:00;2.75;;;1.70;;
23113;SDS011;11726;50.122;8.832;2022-09-23T12:38:36;2.65;;;1.58;;
23113;SDS011;11726;50.122;8.832;2022-09-23T12:43:54;2.15;;;1.80;;
23113;SDS011;11726;50.122;8.832;2022-09-23T12:46:41;2.17;;;1.60;;
23113;SDS011;11726;50.122;8.832;2022-09-23T12:49:21;6.32;;;1.40;;
23113;SDS011;11726;50.122;8.832;2022-09-23T12:54:36;3.10;;;1.60;;
23113;SDS011;11726;50.122;8.832;2022-09-23T12:57:05;2.63;;;1.50;;
23113;SDS011;11726;50.122;8.832;2022-09-23T13:02:21;4.50;;;1.63;;
23113;SDS011;11726;50.122;8.832;2022-09-23T13:05:07;3.03;;;2.00;;
23113;SDS011;11726;50.122;8.832;2022-09-23T13:08:19;4.07;;;1.77;;
23113;SDS011;11726;50.122;8.832;2022-09-23T13:10:56;2.53;;;1.80;;
23113;SDS011;11726;50.122;8.832;2022-09-23T13:13:32;2.60;;;1.58;;
23113;SDS011;11726;50.122;8.832;2022-09-23T13:18:55;6.43;;;2.17;;
23113;SDS011;11726;50.122;8.832;2022-09-23T13:29:26;2.83;;;2.00;;
23113;SDS011;11726;50.122;8.832;2022-09-23T13:31:56;3.80;;;1.92;;
23113;SDS011;11726;50.122;8.832;2022-09-23T13:34:23;4.40;;;1.90;;
23113;SDS011;11726;50.122;8.832;2022-09-23T13:36:53;3.63;;;2.38;;
23113;SDS011;11726;50.122;8.832;2022-09-23T13:39:24;4.15;;;2.40;;
23113;SDS011;11726;50.122;8.832;2022-09-23T13:41:53;2.85;;;2.17;;
23113;SDS011;11726;50.122;8.832;2022-09-23T13:44:23;5.07;;;2.03;;
23113;SDS011;11726;50.122;8.832;2022-09-23T13:46:50;2.90;;;2.45;;
23113;SDS011;11726;50.122;8.832;2022-09-23T13:49:31;4.03;;;2.10;;
23113;SDS011;11726;50.122;8.832;2022-09-23T13:52:01;4.65;;;1.88;;
23113;SDS011;11726;50.122;8.832;2022-09-23T13:57:01;3.13;;;2.70;;
23113;SDS011;11726;50.122;8.832;2022-09-23T13:59:29;3.05;;;2.10;;
23113;SDS011;11726;50.122;8.832;2022-09-23T14:02:09;4.10;;;2.63;;
23113;SDS011;11726;50.122;8.832;2022-09-23T14:04:37;4.78;;;2.53;;
23113;SDS011;11726;50.122;8.832;2022-09-23T14:07:05;6.40;;;2.45;;
23113;SDS011;11726;50.122;8.832;2022-09-23T14:09:34;3.40;;;2.08;;
23113;SDS011;11726;50.122;8.832;2022-09-23T14:12:03;3.17;;;1.70;;
23113;SDS011;11726;50.122;8.832;2022-09-23T14:14:31;2.35;;;1.85;;
23113;SDS011;11726;50.122;8.832;2022-09-23T14:16:59;2.53;;;2.00;;
23113;SDS011;11726;50.122;8.832;2022-09-23T14:19:27;3.08;;;2.28;;
23113;SDS011;11726;50.122;8.832;2022-09-23T14:21:54;4.05;;;2.22;;
23113;SDS011;11726;50.122;8.832;2022-09-23T14:24:28;3.42;;;2.20;;
23113;SDS011;11726;50.122;8.832;2022-09-23T14:26:59;2.92;;;2.25;;
23113;SDS011;11726;50.122;8.832;2022-09-23T14:29:34;2.50;;;1.80;;
23113;SDS011;11726;50.122;8.832;2022-09-23T14:32:08;2.85;;;1.80;;
23113;SDS011;11726;50.122;8.832;2022-09-23T14:37:24;3.05;;;1.60;;
23113;SDS011;11726;50.122;8.832;2022-09-23T14:40:20;5.35;;;1.90;;
23113;SDS011;11726;50.122;8.832;2022-09-23T14:45:26;3.17;;;1.92;;
23113;SDS011;11726;50.122;8.832;2022-09-23T14:47:59;4.45;;;2.00;;
23113;SDS011;11726;50.122;8.832;2022-09-23T14:50:30;2.20;;;1.90;;
23113;SDS011;11726;50.122;8.832;2022-09-23T14:55:51;3.05;;;1.80;;
23113;SDS011;11726;50.122;8.832;2022-09-23T14:58:23;3.08;;;1.80;;
23113;SDS011;11726;50.122;8.832;2022-09-23T15:00:54;6.18;;;1.80;;
23113;SDS011;11726;50.122;8.832;2022-09-23T15:03:23;3.60;;;1.92;;
23113;SDS011;11726;50.122;8.832;2022-09-23T15:05:50;3.88;;;1.90;;
23113;SDS011;11726;50.122;8.832;2022-09-23T15:08:24;2.90;;;2.05;;
23113;SDS011;11726;50.122;8.832;2022-09-23T15:10:52;1.85;;;1.55;;
23113;SDS011;11726;50.122;8.832;2022-09-23T15:13:21;4.28;;;1.80;;
23113;SDS011;11726;50.122;8.832;2022-09-23T15:15:52;1.92;;;1.73;;
23113;SDS011;11726;50.122;8.832;2022-09-23T15:18:20;4.13;;;1.80;;
23113;SDS011;11726;50.122;8.832;2022-09-23T15:20:51;5.78;;;1.80;;
23113;SDS011;11726;50.122;8.832;2022-09-23T15:23:31;2.42;;;1.70;;
23113;SDS011;11726;50.122;8.832;2022-09-23T15:26:10;5.53;;;1.80;;
23113;SDS011;11726;50.122;8.832;2022-09-23T15:28:40;4.28;;;1.58;;
23113;SDS011;11726;50.122;8.832;2022-09-23T15:31:11;2.42;;;1.77;;
23113;SDS011;11726;50.122;8.832;2022-09-23T15:33:43;2.38;;;1.73;;
23113;SDS011;11726;50.122;8.832;2022-09-23T15:36:15;2.22;;;1.77;;
23113;SDS011;11726;50.122;8.832;2022-09-23T15:38:44;7.63;;;1.88;;
23113;SDS011;11726;50.122;8.832;2022-09-23T15:41:11;3.45;;;1.70;;
23113;SDS011;11726;50.122;8.832;2022-09-23T15:43:39;6.90;;;2.10;;
23113;SDS011;11726;50.122;8.832;2022-09-23T15:46:19;2.30;;;1.83;;
23113;SDS011;11726;50.122;8.832;2022-09-23T15:49:01;5.20;;;2.20;;
23113;SDS011;11726;50.122;8.832;2022-09-23T15:51:30;4.15;;;2.45;;
23113;SDS011;11726;50.122;8.832;2022-09-23T15:53:57;3.28;;;2.10;;
23113;SDS011;11726;50.122;8.832;2022-09-23T15:56:23;2.85;;;2.10;;
23113;SDS011;11726;50.122;8.832;2022-09-23T15:58:52;6.93;;;2.90;;
23113;SDS011;11726;50.122;8.832;2022-09-23T16:01:29;3.83;;;2.10;;
23113;SDS011;11726;50.122;8.832;2022-09-23T16:03:58;5.93;;;2.25;;
23113;SDS011;11726;50.122;8.832;2022-09-23T16:06:29;6.35;;;2.08;;
23113;SDS011;11726;50.122;8.832;2022-09-23T16:08:56;3.15;;;2.15;;
23113;SDS011;11726;50.122;8.832;2022-09-23T16:11:24;6.78;;;2.15;;
23113;SDS011;11726;50.122;8.832;2022-09-23T16:13:55;2.78;;;1.90;;
23113;SDS011;11726;50.122;8.832;2022-09-23T16:16:21;6.22;;;2.20;;
23113;SDS011;11726;50.122;8.832;2022-09-23T16:18:48;7.15;;;2.22;;
23113;SDS011;11726;50.122;8.832;2022-09-23T16:21:19;2.55;;;1.70;;
23113;SDS011;11726;50.122;8.832;2022-09-23T16:23:49;3.88;;;2.17;;
23113;SDS011;11726;50.122;8.832;2022-09-23T16:28:45;2.70;;;1.90;;
23113;SDS011;11726;50.122;8.832;2022-09-23T16:31:12;3.55;;;1.90;;
23113;SDS011;11726;50.122;8.832;2022-09-23T16:33:41;3.50;;;2.50;;
23113;SDS011;11726;50.122;8.832;2022-09-23T16:36:11;4.28;;;2.30;;
23113;SDS011;11726;50.122;8.832;2022-09-23T16:38:42;8.77;;;2.38;;
23113;SDS011;11726;50.122;8.832;2022-09-23T16:41:09;3.47;;;2.00;;
23113;SDS011;11726;50.122;8.832;2022-09-23T16:43:36;5.78;;;2.10;;
23113;SDS011;11726;50.122;8.832;2022-09-23T16:46:07;4.60;;;2.13;;
23113;SDS011;11726;50.122;8.832;2022-09-23T16:48:39;3.67;;;2.33;;
23113;SDS011;11726;50.122;8.832;2022-09-23T16:51:07;4.72;;;2.20;;
23113;SDS011;11726;50.122;8.832;2022-09-23T16:53:40;6.97;;;2.88;;
23113;SDS011;11726;50.122;8.832;2022-09-23T16:56:08;5.03;;;2.53;;
23113;SDS011;11726;50.122;8.832;2022-09-23T16:58:37;5.18;;;2.33;;
23113;SDS011;11726;50.122;8.832;2022-09-23T17:01:05;7.35;;;2.97;;
23113;SDS011;11726;50.122;8.832;2022-09-23T17:03:51;5.43;;;2.67;;
23113;SDS011;11726;50.122;8.832;2022-09-23T17:06:18;3.70;;;2.70;;
23113;SDS011;11726;50.122;8.832;2022-09-23T17:08:45;4.88;;;2.90;;
23113;SDS011;11726;50.122;8.832;2022-09-23T17:11:16;4.95;;;2.90;;
23113;SDS011;11726;50.122;8.832;2022-09-23T17:13:42;5.90;;;3.08;;
23113;SDS011;11726;50.122;8.832;2022-09-23T17:16:10;5.35;;;3.53;;
23113;SDS011;11726;50.122;8.832;2022-09-23T17:18:47;8.68;;;3.97;;
23113;SDS011;11726;50.122;8.832;2022-09-23T17:21:14;5.72;;;3.30;;
23113;SDS011;11726;50.122;8.832;2022-09-23T17:23:41;5.72;;;3.17;;
23113;SDS011;11726;50.122;8.832;2022-09-23T17:26:07;4.60;;;2.97;;
23113;SDS011;11726;50.122;8.832;2022-09-23T17:28:35;7.03;;;3.30;;
23113;SDS011;11726;50.122;8.832;2022-09-23T17:31:02;3.08;;;2.70;;
23113;SDS011;11726;50.122;8.832;2022-09-23T17:33:30;4.65;;;2.88;;
23113;SDS011;11726;50.122;8.832;2022-09-23T17:35:58;5.20;;;2.80;;
23113;SDS011;11726;50.122;8.832;2022-09-23T17:38:25;5.45;;;3.00;;
23113;SDS011;11726;50.122;8.832;2022-09-23T17:40:56;5.53;;;2.83;;
23113;SDS011;11726;50.122;8.832;2022-09-23T17:43:25;4.72;;;3.03;;
23113;SDS011;11726;50.122;8.832;2022-09-23T17:45:59;5.85;;;3.80;;
23113;SDS011;11726;50.122;8.832;2022-09-23T17:48:32;6.35;;;3.70;;
23113;SDS011;11726;50.122;8.832;2022-09-23T17:51:08;4.95;;;3.20;;
23113;SDS011;11726;50.122;8.832;2022-09-23T17:53:40;6.70;;;3.47;;
23113;SDS011;11726;50.122;8.832;2022-09-23T17:56:12;5.90;;;3.40;;
23113;SDS011;11726;50.122;8.832;2022-09-23T17:58:41;5.90;;;3.15;;
23113;SDS011;11726;50.122;8.832;2022-09-23T18:01:09;4.90;;;2.72;;
23113;SDS011;11726;50.122;8.832;2022-09-23T18:03:37;3.03;;;2.60;;